X  ZamknijMetar - Lotnicze dane pogodowe     EPKT Katowice International Airport

Temperatura

0°C Temperatura

-2°C Punkt rosy

87% Wilgotność



Wiatr

13 km/h

 8 MPH

 4 m/s

 7 KTS



100°
East
Obecne warunki

Częściowe zachmurzenie Częściowe zachmurzenie
Ciśnienie 1002.92 (hPa) - 29.62 (in)
Widoczność 6.2 (mi) - 10 (km)
Lotnisko
Kod lotniska EPKT

Lokalizacja Katowice International Airport 23 (km)

Metar:
EPKT 040200Z 10007KT 9999 FEW038 M00/M02 Q1003

Czas: 04-12-2020 03:00